sensor_id;sensor_type;location;lat;lon;timestamp;pressure;altitude;pressure_sealevel;temperature;humidity
53647;BME280;39550;52.230;5.194;2023-05-23T00:01:30;101827.13;;;18.06;69.15
53647;BME280;39550;52.230;5.194;2023-05-23T00:04:01;101833.16;;;18.08;69.56
53647;BME280;39550;52.230;5.194;2023-05-23T00:06:27;101820.19;;;18.01;69.22
53647;BME280;39550;52.230;5.194;2023-05-23T00:08:52;101841.00;;;18.06;69.09
53647;BME280;39550;52.230;5.194;2023-05-23T00:11:18;101829.72;;;18.04;69.37
53647;BME280;39550;52.230;5.194;2023-05-23T00:13:44;101835.84;;;18.01;69.21
53647;BME280;39550;52.230;5.194;2023-05-23T00:16:10;101835.84;;;17.98;69.19
53647;BME280;39550;52.230;5.194;2023-05-23T00:18:36;101835.84;;;17.98;69.13
53647;BME280;39550;52.230;5.194;2023-05-23T00:21:02;101835.84;;;17.98;69.51
53647;BME280;39550;52.230;5.194;2023-05-23T00:23:28;101834.13;;;17.94;68.74
53647;BME280;39550;52.230;5.194;2023-05-23T00:25:54;101848.03;;;17.96;69.09
53647;BME280;39550;52.230;5.194;2023-05-23T00:28:20;101855.88;;;17.93;69.23
53647;BME280;39550;52.230;5.194;2023-05-23T00:30:46;101854.16;;;17.92;69.53
53647;BME280;39550;52.230;5.194;2023-05-23T00:33:13;101852.41;;;17.93;69.54
53647;BME280;39550;52.230;5.194;2023-05-23T00:35:42;101849.81;;;17.91;69.13
53647;BME280;39550;52.230;5.194;2023-05-23T00:38:07;101844.59;;;17.91;69.22
53647;BME280;39550;52.230;5.194;2023-05-23T00:40:33;101849.81;;;17.88;69.22
53647;BME280;39550;52.230;5.194;2023-05-23T00:42:59;101853.28;;;17.87;69.16
53647;BME280;39550;52.230;5.194;2023-05-23T00:45:25;101850.66;;;17.87;69.07
53647;BME280;39550;52.230;5.194;2023-05-23T00:47:51;101855.03;;;17.85;68.57
53647;BME280;39550;52.230;5.194;2023-05-23T00:50:17;101853.31;;;17.84;69.00
53647;BME280;39550;52.230;5.194;2023-05-23T00:52:44;101851.56;;;17.83;69.30
53647;BME280;39550;52.230;5.194;2023-05-23T00:55:11;101856.78;;;17.83;69.32
53647;BME280;39550;52.230;5.194;2023-05-23T00:57:37;101856.78;;;17.83;69.05
53647;BME280;39550;52.230;5.194;2023-05-23T01:00:08;101856.81;;;17.80;69.00
53647;BME280;39550;52.230;5.194;2023-05-23T01:02:43;101856.81;;;17.80;69.35
53647;BME280;39550;52.230;5.194;2023-05-23T01:05:13;101850.72;;;17.79;69.10
53647;BME280;39550;52.230;5.194;2023-05-23T01:07:45;101855.09;;;17.76;68.86
53647;BME280;39550;52.230;5.194;2023-05-23T01:10:11;101855.09;;;17.76;69.22
53647;BME280;39550;52.230;5.194;2023-05-23T01:12:45;101852.50;;;17.74;69.34
53647;BME280;39550;52.230;5.194;2023-05-23T01:15:17;101853.34;;;17.75;69.66
53647;BME280;39550;52.230;5.194;2023-05-23T01:17:45;101854.22;;;17.72;69.55
53647;BME280;39550;52.230;5.194;2023-05-23T01:20:21;101853.38;;;17.72;69.67
53647;BME280;39550;52.230;5.194;2023-05-23T01:26:12;101856.00;;;17.68;69.63
53647;BME280;39550;52.230;5.194;2023-05-23T01:28:27;101851.66;;;17.67;69.67
53647;BME280;39550;52.230;5.194;2023-05-23T01:30:56;101851.69;;;17.64;69.59
53647;BME280;39550;52.230;5.194;2023-05-23T01:33:23;101849.06;;;17.64;69.43
53647;BME280;39550;52.230;5.194;2023-05-23T01:35:49;101849.94;;;17.63;68.99
53647;BME280;39550;52.230;5.194;2023-05-23T01:38:15;101850.78;;;17.64;69.35
53647;BME280;39550;52.230;5.194;2023-05-23T01:40:40;101858.63;;;17.62;69.36
53647;BME280;39550;52.230;5.194;2023-05-23T01:43:06;101846.50;;;17.55;69.28
53647;BME280;39550;52.230;5.194;2023-05-23T01:45:32;101869.94;;;17.60;69.16
53647;BME280;39550;52.230;5.194;2023-05-23T01:47:57;101861.25;;;17.58;69.42
53647;BME280;39550;52.230;5.194;2023-05-23T01:50:24;101860.41;;;17.56;69.55
53647;BME280;39550;52.230;5.194;2023-05-23T01:52:50;101868.22;;;17.57;69.51
53647;BME280;39550;52.230;5.194;2023-05-23T01:55:18;101867.34;;;17.55;69.08
53647;BME280;39550;52.230;5.194;2023-05-23T01:57:49;101858.69;;;17.53;69.72
53647;BME280;39550;52.230;5.194;2023-05-23T02:00:16;101863.03;;;17.49;69.54
53647;BME280;39550;52.230;5.194;2023-05-23T02:02:41;101859.56;;;17.49;69.63
53647;BME280;39550;52.230;5.194;2023-05-23T02:05:08;101863.91;;;17.50;69.64
53647;BME280;39550;52.230;5.194;2023-05-23T02:07:34;101851.75;;;17.46;69.82
53647;BME280;39550;52.230;5.194;2023-05-23T02:09:59;101860.44;;;17.48;69.43
53647;BME280;39550;52.230;5.194;2023-05-23T02:12:24;101862.19;;;17.49;69.26
53647;BME280;39550;52.230;5.194;2023-05-23T02:14:50;101865.66;;;17.48;69.63
53647;BME280;39550;52.230;5.194;2023-05-23T02:17:18;101870.88;;;17.48;69.82
53647;BME280;39550;52.230;5.194;2023-05-23T02:19:43;101871.72;;;17.47;69.97
53647;BME280;39550;52.230;5.194;2023-05-23T02:22:08;101877.81;;;17.46;69.55
53647;BME280;39550;52.230;5.194;2023-05-23T02:24:34;101879.56;;;17.44;69.78
53647;BME280;39550;52.230;5.194;2023-05-23T02:26:59;101880.44;;;17.44;69.85
53647;BME280;39550;52.230;5.194;2023-05-23T02:29:25;101876.13;;;17.35;69.84
53647;BME280;39550;52.230;5.194;2023-05-23T02:31:50;101889.13;;;17.42;69.65
53647;BME280;39550;52.230;5.194;2023-05-23T02:34:15;101883.91;;;17.40;69.66
53647;BME280;39550;52.230;5.194;2023-05-23T02:36:40;101892.63;;;17.41;69.91
53647;BME280;39550;52.230;5.194;2023-05-23T02:39:06;101902.16;;;17.40;69.56
53647;BME280;39550;52.230;5.194;2023-05-23T02:41:31;101907.38;;;17.39;70.02
53647;BME280;39550;52.230;5.194;2023-05-23T02:43:57;101905.66;;;17.34;69.53
53647;BME280;39550;52.230;5.194;2023-05-23T02:46:23;101903.03;;;17.36;70.09
53647;BME280;39550;52.230;5.194;2023-05-23T02:48:48;101910.84;;;17.34;69.46
53647;BME280;39550;52.230;5.194;2023-05-23T02:51:14;101910.84;;;17.34;69.88
53647;BME280;39550;52.230;5.194;2023-05-23T02:53:39;101903.06;;;17.31;69.51
53647;BME280;39550;52.230;5.194;2023-05-23T02:56:05;101910.88;;;17.31;69.45
53647;BME280;39550;52.230;5.194;2023-05-23T02:58:32;101905.69;;;17.27;69.70
53647;BME280;39550;52.230;5.194;2023-05-23T03:01:01;101910.91;;;17.28;69.52
53647;BME280;39550;52.230;5.194;2023-05-23T03:03:26;101904.78;;;17.28;69.54
53647;BME280;39550;52.230;5.194;2023-05-23T03:05:53;101909.16;;;17.27;69.84
53647;BME280;39550;52.230;5.194;2023-05-23T03:08:18;101896.16;;;17.15;69.92
53647;BME280;39550;52.230;5.194;2023-05-23T03:10:43;101913.50;;;17.24;69.54
53647;BME280;39550;52.230;5.194;2023-05-23T03:13:09;101916.09;;;17.22;69.77
53647;BME280;39550;52.230;5.194;2023-05-23T03:15:35;101917.88;;;17.20;69.86
53647;BME280;39550;52.230;5.194;2023-05-23T03:18:00;101910.91;;;17.19;69.47
53647;BME280;39550;52.230;5.194;2023-05-23T03:20:25;101908.31;;;17.19;69.66
53647;BME280;39550;52.230;5.194;2023-05-23T03:22:51;101911.78;;;17.16;69.51
53647;BME280;39550;52.230;5.194;2023-05-23T03:25:16;101909.19;;;17.15;69.90
53647;BME280;39550;52.230;5.194;2023-05-23T03:27:41;101913.53;;;17.13;69.39
53647;BME280;39550;52.230;5.194;2023-05-23T03:30:07;101910.06;;;17.12;69.50
53647;BME280;39550;52.230;5.194;2023-05-23T03:32:33;101913.56;;;17.11;69.56
53647;BME280;39550;52.230;5.194;2023-05-23T03:34:58;101917.00;;;17.12;69.48
53647;BME280;39550;52.230;5.194;2023-05-23T03:37:23;101912.69;;;17.05;69.47
53647;BME280;39550;52.230;5.194;2023-05-23T03:39:49;101923.09;;;17.08;69.64
53647;BME280;39550;52.230;5.194;2023-05-23T03:42:16;101924.81;;;17.06;69.22
53647;BME280;39550;52.230;5.194;2023-05-23T03:44:41;101925.72;;;17.05;69.31
53647;BME280;39550;52.230;5.194;2023-05-23T03:47:07;101921.38;;;17.04;69.59
53647;BME280;39550;52.230;5.194;2023-05-23T03:49:32;101924.84;;;17.02;69.34
53647;BME280;39550;52.230;5.194;2023-05-23T03:51:58;101930.03;;;17.02;69.47
53647;BME280;39550;52.230;5.194;2023-05-23T03:54:23;101930.03;;;17.02;69.29
53647;BME280;39550;52.230;5.194;2023-05-23T03:56:48;101937.84;;;17.01;69.13
53647;BME280;39550;52.230;5.194;2023-05-23T03:59:14;101950.88;;;16.99;68.84
53647;BME280;39550;52.230;5.194;2023-05-23T04:01:40;101948.28;;;16.98;69.64
53647;BME280;39550;52.230;5.194;2023-05-23T04:04:05;101950.91;;;16.96;69.27
53647;BME280;39550;52.230;5.194;2023-05-23T04:06:31;101947.41;;;16.94;68.84
53647;BME280;39550;52.230;5.194;2023-05-23T04:08:57;101953.47;;;16.93;69.46
53647;BME280;39550;52.230;5.194;2023-05-23T04:11:22;101957.84;;;16.91;69.12
53647;BME280;39550;52.230;5.194;2023-05-23T04:13:48;101960.44;;;16.90;68.92
53647;BME280;39550;52.230;5.194;2023-05-23T04:16:13;101962.19;;;16.89;68.95
53647;BME280;39550;52.230;5.194;2023-05-23T04:18:38;101956.94;;;16.81;69.20
53647;BME280;39550;52.230;5.194;2023-05-23T04:21:04;101964.75;;;16.86;69.38
53647;BME280;39550;52.230;5.194;2023-05-23T04:23:29;101964.75;;;16.84;69.20
53647;BME280;39550;52.230;5.194;2023-05-23T04:25:55;101966.50;;;16.84;69.13
53647;BME280;39550;52.230;5.194;2023-05-23T04:28:21;101974.28;;;16.84;69.04
53647;BME280;39550;52.230;5.194;2023-05-23T04:30:47;101969.94;;;16.83;69.22
53647;BME280;39550;52.230;5.194;2023-05-23T04:33:13;101976.00;;;16.83;69.13
53647;BME280;39550;52.230;5.194;2023-05-23T04:35:39;101980.38;;;16.81;69.03
53647;BME280;39550;52.230;5.194;2023-05-23T04:38:05;101989.94;;;16.81;69.21
53647;BME280;39550;52.230;5.194;2023-05-23T04:40:30;101993.38;;;16.80;68.95
53647;BME280;39550;52.230;5.194;2023-05-23T04:42:55;101979.47;;;16.79;69.20
53647;BME280;39550;52.230;5.194;2023-05-23T04:45:21;101989.03;;;16.79;68.57
53647;BME280;39550;52.230;5.194;2023-05-23T04:47:47;101990.78;;;16.77;69.20
53647;BME280;39550;52.230;5.194;2023-05-23T04:50:12;101992.50;;;16.72;68.70
53647;BME280;39550;52.230;5.194;2023-05-23T04:52:41;102001.19;;;16.74;69.05
53647;BME280;39550;52.230;5.194;2023-05-23T04:55:07;101998.56;;;16.72;69.09
53647;BME280;39550;52.230;5.194;2023-05-23T04:57:33;102002.94;;;16.70;69.24
53647;BME280;39550;52.230;5.194;2023-05-23T04:59:58;102002.94;;;16.68;68.92
53647;BME280;39550;52.230;5.194;2023-05-23T05:02:25;102013.34;;;16.68;68.45
53647;BME280;39550;52.230;5.194;2023-05-23T05:04:51;102007.25;;;16.65;68.81
53647;BME280;39550;52.230;5.194;2023-05-23T05:07:16;102015.06;;;16.66;68.48
53647;BME280;39550;52.230;5.194;2023-05-23T05:09:42;102016.78;;;16.61;67.95
53647;BME280;39550;52.230;5.194;2023-05-23T05:12:07;102015.91;;;16.59;67.82
53647;BME280;39550;52.230;5.194;2023-05-23T05:14:32;102034.13;;;16.62;67.15
53647;BME280;39550;52.230;5.194;2023-05-23T05:16:58;102039.34;;;16.65;67.82
53647;BME280;39550;52.230;5.194;2023-05-23T05:19:23;102030.69;;;16.60;68.13
53647;BME280;39550;52.230;5.194;2023-05-23T05:21:49;102046.25;;;16.57;67.24
53647;BME280;39550;52.230;5.194;2023-05-23T05:24:14;102054.88;;;16.38;68.14
53647;BME280;39550;52.230;5.194;2023-05-23T05:26:40;102053.16;;;16.40;66.70
53647;BME280;39550;52.230;5.194;2023-05-23T05:29:06;102064.47;;;16.46;66.34
53647;BME280;39550;52.230;5.194;2023-05-23T05:31:31;102070.53;;;16.47;66.95
53647;BME280;39550;52.230;5.194;2023-05-23T05:33:57;102070.53;;;16.47;65.69
53647;BME280;39550;52.230;5.194;2023-05-23T05:36:22;102072.28;;;16.48;65.72
53647;BME280;39550;52.230;5.194;2023-05-23T05:38:47;102074.88;;;16.48;65.41
53647;BME280;39550;52.230;5.194;2023-05-23T05:41:13;102075.75;;;16.47;65.94
53647;BME280;39550;52.230;5.194;2023-05-23T05:43:38;102072.28;;;16.48;66.08
53647;BME280;39550;52.230;5.194;2023-05-23T05:46:04;102075.75;;;16.47;66.24
53647;BME280;39550;52.230;5.194;2023-05-23T05:48:29;102080.94;;;16.48;66.08
53647;BME280;39550;52.230;5.194;2023-05-23T05:50:54;102082.69;;;16.48;66.27
53647;BME280;39550;52.230;5.194;2023-05-23T05:53:20;102086.13;;;16.47;66.73
53647;BME280;39550;52.230;5.194;2023-05-23T05:55:45;102081.78;;;16.46;66.75
53647;BME280;39550;52.230;5.194;2023-05-23T05:58:10;102084.41;;;16.46;66.37
53647;BME280;39550;52.230;5.194;2023-05-23T06:00:36;102081.78;;;16.46;65.92
53647;BME280;39550;52.230;5.194;2023-05-23T06:03:07;102084.41;;;16.46;66.17
53647;BME280;39550;52.230;5.194;2023-05-23T06:05:33;102079.19;;;16.46;66.50
53647;BME280;39550;52.230;5.194;2023-05-23T06:07:58;102089.59;;;16.43;66.02
53647;BME280;39550;52.230;5.194;2023-05-23T06:10:23;102082.66;;;16.39;66.51
53647;BME280;39550;52.230;5.194;2023-05-23T06:12:49;102091.31;;;16.38;66.38
53647;BME280;39550;52.230;5.194;2023-05-23T06:15:14;102093.91;;;16.36;65.70
53647;BME280;39550;52.230;5.194;2023-05-23T06:17:40;102098.25;;;16.36;66.63
53647;BME280;39550;52.230;5.194;2023-05-23T06:20:06;102103.44;;;16.36;66.30
53647;BME280;39550;52.230;5.194;2023-05-23T06:22:32;102114.72;;;16.36;66.17
53647;BME280;39550;52.230;5.194;2023-05-23T06:24:58;102103.44;;;16.34;66.16
53647;BME280;39550;52.230;5.194;2023-05-23T06:27:23;102108.66;;;16.36;65.88
53647;BME280;39550;52.230;5.194;2023-05-23T06:29:48;102107.75;;;16.33;66.11
53647;BME280;39550;52.230;5.194;2023-05-23T06:32:14;102103.44;;;16.32;65.84
53647;BME280;39550;52.230;5.194;2023-05-23T06:34:39;102107.75;;;16.30;65.77
53647;BME280;39550;52.230;5.194;2023-05-23T06:37:04;102105.16;;;16.27;65.66
53647;BME280;39550;52.230;5.194;2023-05-23T06:39:30;102100.81;;;16.26;65.69
53647;BME280;39550;52.230;5.194;2023-05-23T06:41:55;102110.34;;;16.24;65.64
53647;BME280;39550;52.230;5.194;2023-05-23T06:44:21;102110.34;;;16.23;65.96
53647;BME280;39550;52.230;5.194;2023-05-23T06:46:46;102109.47;;;16.24;66.69
53647;BME280;39550;52.230;5.194;2023-05-23T06:49:12;102112.06;;;16.24;66.10
53647;BME280;39550;52.230;5.194;2023-05-23T06:51:37;102112.06;;;16.22;66.67
53647;BME280;39550;52.230;5.194;2023-05-23T06:54:03;102111.19;;;16.22;65.96
53647;BME280;39550;52.230;5.194;2023-05-23T06:56:29;102119.00;;;16.20;65.71
53647;BME280;39550;52.230;5.194;2023-05-23T06:58:54;102114.63;;;16.16;65.82
53647;BME280;39550;52.230;5.194;2023-05-23T07:01:19;102122.44;;;16.17;65.64
53647;BME280;39550;52.230;5.194;2023-05-23T07:03:45;102135.47;;;16.22;65.63
53647;BME280;39550;52.230;5.194;2023-05-23T07:06:11;102133.75;;;16.27;66.19
53647;BME280;39550;52.230;5.194;2023-05-23T07:08:37;102125.97;;;16.30;65.19
53647;BME280;39550;52.230;5.194;2023-05-23T07:11:02;102131.19;;;16.35;64.88
53647;BME280;39550;52.230;5.194;2023-05-23T07:13:28;102132.91;;;16.34;65.11
53647;BME280;39550;52.230;5.194;2023-05-23T07:15:54;102131.16;;;16.33;65.05
53647;BME280;39550;52.230;5.194;2023-05-23T07:18:20;102138.13;;;16.31;65.59
53647;BME280;39550;52.230;5.194;2023-05-23T07:20:45;102134.63;;;16.26;65.33
53647;BME280;39550;52.230;5.194;2023-05-23T07:23:10;102132.88;;;16.25;65.08
53647;BME280;39550;52.230;5.194;2023-05-23T07:25:35;102129.41;;;16.23;65.40
53647;BME280;39550;52.230;5.194;2023-05-23T07:28:01;102132.84;;;16.19;65.26
53647;BME280;39550;52.230;5.194;2023-05-23T07:30:27;102142.41;;;16.22;64.49
53647;BME280;39550;52.230;5.194;2023-05-23T07:32:52;102139.81;;;16.20;64.70
53647;BME280;39550;52.230;5.194;2023-05-23T07:35:17;102150.22;;;16.26;64.35
53647;BME280;39550;52.230;5.194;2023-05-23T07:37:48;102150.22;;;16.26;64.98
53647;BME280;39550;52.230;5.194;2023-05-23T07:40:13;102151.97;;;16.27;64.27
53647;BME280;39550;52.230;5.194;2023-05-23T07:42:38;102147.63;;;16.28;64.53
53647;BME280;39550;52.230;5.194;2023-05-23T07:45:04;102151.97;;;16.30;64.58
53647;BME280;39550;52.230;5.194;2023-05-23T07:47:30;102148.47;;;16.25;64.11
53647;BME280;39550;52.230;5.194;2023-05-23T07:49:55;102152.81;;;16.23;64.57
53647;BME280;39550;52.230;5.194;2023-05-23T07:52:21;102148.47;;;16.21;64.35
53647;BME280;39550;52.230;5.194;2023-05-23T07:54:46;102162.31;;;16.20;64.48
53647;BME280;39550;52.230;5.194;2023-05-23T07:57:11;102155.41;;;16.20;64.46
53647;BME280;39550;52.230;5.194;2023-05-23T07:59:37;102153.66;;;16.19;64.28
53647;BME280;39550;52.230;5.194;2023-05-23T08:02:03;102156.25;;;16.21;63.70
53647;BME280;39550;52.230;5.194;2023-05-23T08:04:28;102162.31;;;16.20;63.71
53647;BME280;39550;52.230;5.194;2023-05-23T08:06:54;102160.59;;;16.20;64.13
53647;BME280;39550;52.230;5.194;2023-05-23T08:09:22;102165.75;;;16.17;63.72
53647;BME280;39550;52.230;5.194;2023-05-23T08:11:48;102167.53;;;16.21;63.04
53647;BME280;39550;52.230;5.194;2023-05-23T08:14:13;102162.38;;;16.27;62.73
53647;BME280;39550;52.230;5.194;2023-05-23T08:16:39;102174.53;;;16.28;63.00
53647;BME280;39550;52.230;5.194;2023-05-23T08:19:04;102171.03;;;16.26;62.87
53647;BME280;39550;52.230;5.194;2023-05-23T08:21:30;102172.78;;;16.30;63.40
53647;BME280;39550;52.230;5.194;2023-05-23T08:23:56;102177.09;;;16.27;63.14
53647;BME280;39550;52.230;5.194;2023-05-23T08:26:21;102186.63;;;16.23;63.30
53647;BME280;39550;52.230;5.194;2023-05-23T08:28:47;102184.03;;;16.25;62.58
53647;BME280;39550;52.230;5.194;2023-05-23T08:31:12;102169.28;;;16.22;62.55
53647;BME280;39550;52.230;5.194;2023-05-23T08:33:38;102172.78;;;16.24;62.49
53647;BME280;39550;52.230;5.194;2023-05-23T08:36:03;102188.38;;;16.24;62.27
53647;BME280;39550;52.230;5.194;2023-05-23T08:38:28;102176.25;;;16.28;62.78
53647;BME280;39550;52.230;5.194;2023-05-23T08:40:55;102184.94;;;16.31;62.95
53647;BME280;39550;52.230;5.194;2023-05-23T08:43:20;102184.94;;;16.31;62.93
53647;BME280;39550;52.230;5.194;2023-05-23T08:45:47;102186.63;;;16.26;62.48
53647;BME280;39550;52.230;5.194;2023-05-23T08:48:18;102184.94;;;16.28;62.14
53647;BME280;39550;52.230;5.194;2023-05-23T08:50:45;102193.59;;;16.30;62.32
53647;BME280;39550;52.230;5.194;2023-05-23T08:53:14;102195.34;;;16.36;62.86
53647;BME280;39550;52.230;5.194;2023-05-23T08:55:45;102194.50;;;16.36;62.99
53647;BME280;39550;52.230;5.194;2023-05-23T08:58:12;102206.59;;;16.30;63.41
53647;BME280;39550;52.230;5.194;2023-05-23T09:00:37;102211.81;;;16.29;63.05
53647;BME280;39550;52.230;5.194;2023-05-23T09:03:03;102204.00;;;16.30;63.22
53647;BME280;39550;52.230;5.194;2023-05-23T09:05:28;102214.41;;;16.33;62.83
53647;BME280;39550;52.230;5.194;2023-05-23T09:07:54;102215.31;;;16.37;62.87
53647;BME280;39550;52.230;5.194;2023-05-23T09:10:20;102221.34;;;16.31;61.86
53647;BME280;39550;52.230;5.194;2023-05-23T09:12:46;102217.91;;;16.32;60.62
53647;BME280;39550;52.230;5.194;2023-05-23T09:15:11;102216.16;;;16.28;60.92
53647;BME280;39550;52.230;5.194;2023-05-23T09:17:37;102225.72;;;16.32;60.65
53647;BME280;39550;52.230;5.194;2023-05-23T09:20:10;102221.44;;;16.44;60.53
53647;BME280;39550;52.230;5.194;2023-05-23T09:22:36;102228.38;;;16.45;60.14
53647;BME280;39550;52.230;5.194;2023-05-23T09:25:02;102219.69;;;16.43;60.79
53647;BME280;39550;52.230;5.194;2023-05-23T09:27:27;102232.69;;;16.43;61.02
53647;BME280;39550;52.230;5.194;2023-05-23T09:29:53;102234.44;;;16.41;60.48
53647;BME280;39550;52.230;5.194;2023-05-23T09:32:19;102236.13;;;16.39;61.04
53647;BME280;39550;52.230;5.194;2023-05-23T09:34:58;102240.41;;;16.27;61.82
53647;BME280;39550;52.230;5.194;2023-05-23T09:37:34;102234.31;;;16.25;61.72
53647;BME280;39550;52.230;5.194;2023-05-23T09:40:05;102242.16;;;16.28;61.47
53647;BME280;39550;52.230;5.194;2023-05-23T09:42:32;102235.22;;;16.33;60.07
53647;BME280;39550;52.230;5.194;2023-05-23T09:45:01;102236.97;;;16.33;60.03
53647;BME280;39550;52.230;5.194;2023-05-23T09:47:27;102240.41;;;16.29;60.69
53647;BME280;39550;52.230;5.194;2023-05-23T09:49:52;102232.59;;;16.29;60.10
53647;BME280;39550;52.230;5.194;2023-05-23T09:52:18;102245.63;;;16.30;60.23
53647;BME280;39550;52.230;5.194;2023-05-23T09:54:46;102231.78;;;16.38;60.65
53647;BME280;39550;52.230;5.194;2023-05-23T09:57:14;102230.06;;;16.37;60.50
53647;BME280;39550;52.230;5.194;2023-05-23T09:59:44;102233.53;;;16.36;60.84
53647;BME280;39550;52.230;5.194;2023-05-23T10:02:15;102239.56;;;16.33;62.18
53647;BME280;39550;52.230;5.194;2023-05-23T10:04:42;102249.13;;;16.36;62.44
53647;BME280;39550;52.230;5.194;2023-05-23T10:07:19;102250.00;;;16.38;61.06
53647;BME280;39550;52.230;5.194;2023-05-23T10:09:53;102252.66;;;16.41;61.65
53647;BME280;39550;52.230;5.194;2023-05-23T10:15:01;102260.41;;;16.39;60.76
53647;BME280;39550;52.230;5.194;2023-05-23T10:20:08;102247.47;;;16.53;59.45
53647;BME280;39550;52.230;5.194;2023-05-23T10:22:35;102256.19;;;16.55;60.12
53647;BME280;39550;52.230;5.194;2023-05-23T10:25:02;102249.22;;;16.48;61.17
53647;BME280;39550;52.230;5.194;2023-05-23T10:27:30;102254.38;;;16.43;61.18
53647;BME280;39550;52.230;5.194;2023-05-23T10:29:56;102255.25;;;16.44;60.01
53647;BME280;39550;52.230;5.194;2023-05-23T10:32:21;102257.81;;;16.38;61.32
53647;BME280;39550;52.230;5.194;2023-05-23T10:34:58;102261.31;;;16.43;60.17
53647;BME280;39550;52.230;5.194;2023-05-23T10:37:38;102271.72;;;16.43;60.55
53647;BME280;39550;52.230;5.194;2023-05-23T10:40:30;102268.25;;;16.44;60.28
53647;BME280;39550;52.230;5.194;2023-05-23T10:43:13;102270.03;;;16.48;61.28
53647;BME280;39550;52.230;5.194;2023-05-23T10:45:41;102272.63;;;16.45;60.14
53647;BME280;39550;52.230;5.194;2023-05-23T10:48:40;102273.47;;;16.47;59.18
53647;BME280;39550;52.230;5.194;2023-05-23T10:51:07;102264.84;;;16.51;59.89
53647;BME280;39550;52.230;5.194;2023-05-23T10:53:43;102263.09;;;16.53;60.52
53647;BME280;39550;52.230;5.194;2023-05-23T10:56:18;102262.25;;;16.54;59.74
53647;BME280;39550;52.230;5.194;2023-05-23T10:58:53;102256.19;;;16.58;60.34
53647;BME280;39550;52.230;5.194;2023-05-23T11:01:19;102259.69;;;16.62;59.17
53647;BME280;39550;52.230;5.194;2023-05-23T11:06:31;102259.63;;;16.54;60.49
53647;BME280;39550;52.230;5.194;2023-05-23T11:09:04;102267.44;;;16.49;61.40
53647;BME280;39550;52.230;5.194;2023-05-23T11:12:06;102276.06;;;16.44;61.13
53647;BME280;39550;52.230;5.194;2023-05-23T11:17:14;102277.75;;;16.36;59.81
53647;BME280;39550;52.230;5.194;2023-05-23T11:20:02;102273.38;;;16.31;60.34
53647;BME280;39550;52.230;5.194;2023-05-23T11:22:30;102283.81;;;16.38;59.55
53647;BME280;39550;52.230;5.194;2023-05-23T11:24:57;102273.47;;;16.47;58.75
53647;BME280;39550;52.230;5.194;2023-05-23T11:27:44;102273.50;;;16.53;60.04
53647;BME280;39550;52.230;5.194;2023-05-23T11:32:40;102270.88;;;16.50;59.76
53647;BME280;39550;52.230;5.194;2023-05-23T11:35:08;102273.50;;;16.50;59.82
53647;BME280;39550;52.230;5.194;2023-05-23T11:37:34;102276.94;;;16.49;60.42
53647;BME280;39550;52.230;5.194;2023-05-23T11:40:26;102277.00;;;16.52;59.71
53647;BME280;39550;52.230;5.194;2023-05-23T11:42:54;102271.72;;;16.46;60.25
53647;BME280;39550;52.230;5.194;2023-05-23T11:45:24;102276.09;;;16.51;60.28
53647;BME280;39550;52.230;5.194;2023-05-23T11:47:50;102274.38;;;16.52;61.03
53647;BME280;39550;52.230;5.194;2023-05-23T11:50:15;102281.34;;;16.56;60.23
53647;BME280;39550;52.230;5.194;2023-05-23T11:52:41;102283.91;;;16.50;60.54
53647;BME280;39550;52.230;5.194;2023-05-23T11:55:08;102282.16;;;16.49;60.23
53647;BME280;39550;52.230;5.194;2023-05-23T11:57:37;102280.44;;;16.51;59.49
53647;BME280;39550;52.230;5.194;2023-05-23T12:00:04;102263.22;;;16.68;58.28
53647;BME280;39550;52.230;5.194;2023-05-23T12:02:30;102276.16;;;16.64;58.66
53647;BME280;39550;52.230;5.194;2023-05-23T12:04:55;102271.81;;;16.55;60.28
53647;BME280;39550;52.230;5.194;2023-05-23T12:07:21;102267.50;;;16.62;59.53
53647;BME280;39550;52.230;5.194;2023-05-23T12:09:46;102278.84;;;16.70;59.41
53647;BME280;39550;52.230;5.194;2023-05-23T12:12:12;102286.63;;;16.67;58.90
53647;BME280;39550;52.230;5.194;2023-05-23T12:14:38;102281.34;;;16.55;59.91
53647;BME280;39550;52.230;5.194;2023-05-23T12:17:10;102294.31;;;16.53;58.91
53647;BME280;39550;52.230;5.194;2023-05-23T12:19:37;102284.88;;;16.66;59.31
53647;BME280;39550;52.230;5.194;2023-05-23T12:22:06;102291.00;;;16.77;56.83
53647;BME280;39550;52.230;5.194;2023-05-23T12:24:32;102289.22;;;16.68;57.41
53647;BME280;39550;52.230;5.194;2023-05-23T12:26:59;102286.72;;;16.84;58.49
53647;BME280;39550;52.230;5.194;2023-05-23T12:29:32;102282.47;;;17.01;56.89
53647;BME280;39550;52.230;5.194;2023-05-23T12:32:02;102291.06;;;16.85;56.59
53647;BME280;39550;52.230;5.194;2023-05-23T12:34:28;102286.00;;;17.11;57.73
53647;BME280;39550;52.230;5.194;2023-05-23T12:36:54;102282.59;;;17.29;57.07
53647;BME280;39550;52.230;5.194;2023-05-23T12:39:29;102294.56;;;16.92;57.53
53647;BME280;39550;52.230;5.194;2023-05-23T12:42:06;102295.31;;;16.72;58.89
53647;BME280;39550;52.230;5.194;2023-05-23T12:44:32;102292.69;;;16.64;58.25
53647;BME280;39550;52.230;5.194;2023-05-23T12:46:58;102286.56;;;16.58;58.66
53647;BME280;39550;52.230;5.194;2023-05-23T12:49:23;102293.53;;;16.62;58.10
53647;BME280;39550;52.230;5.194;2023-05-23T12:51:49;102301.59;;;17.07;56.29
53647;BME280;39550;52.230;5.194;2023-05-23T12:54:14;102292.75;;;16.80;56.41
53647;BME280;39550;52.230;5.194;2023-05-23T12:56:39;102294.72;;;17.24;55.33
53647;BME280;39550;52.230;5.194;2023-05-23T12:59:05;102302.44;;;17.02;56.51
53647;BME280;39550;52.230;5.194;2023-05-23T13:01:30;102300.50;;;16.71;56.86
53647;BME280;39550;52.230;5.194;2023-05-23T13:03:58;102299.88;;;17.12;56.49
53647;BME280;39550;52.230;5.194;2023-05-23T13:06:25;102295.66;;;17.49;55.99